sensor_id;sensor_type;location;lat;lon;timestamp;pressure;altitude;pressure_sealevel;temperature;humidity
48517;BME280;34310;51.904;4.256;2023-09-18T00:00:50;100626.44;;;23.37;58.25
48517;BME280;34310;51.904;4.256;2023-09-18T00:03:18;100608.75;;;23.29;58.36
48517;BME280;34310;51.904;4.256;2023-09-18T00:05:46;100623.78;;;23.36;58.25
48517;BME280;34310;51.904;4.256;2023-09-18T00:08:12;100614.09;;;23.33;58.36
48517;BME280;34310;51.904;4.256;2023-09-18T00:10:39;100621.16;;;23.36;58.35
48517;BME280;34310;51.904;4.256;2023-09-18T00:13:06;100610.53;;;23.30;58.20
48517;BME280;34310;51.904;4.256;2023-09-18T00:15:32;100617.63;;;23.35;58.46
48517;BME280;34310;51.904;4.256;2023-09-18T00:17:59;100610.56;;;23.33;58.16
48517;BME280;34310;51.904;4.256;2023-09-18T00:20:25;100609.72;;;23.35;58.31
48517;BME280;34310;51.904;4.256;2023-09-18T00:22:55;100600.94;;;23.35;58.32
48517;BME280;34310;51.904;4.256;2023-09-18T00:25:22;100594.75;;;23.33;58.29
48517;BME280;34310;51.904;4.256;2023-09-18T00:27:49;100587.75;;;23.35;58.13
48517;BME280;34310;51.904;4.256;2023-09-18T00:30:15;100570.13;;;23.29;58.32
48517;BME280;34310;51.904;4.256;2023-09-18T00:32:42;100564.91;;;23.32;58.29
48517;BME280;34310;51.904;4.256;2023-09-18T00:35:08;100533.97;;;23.19;58.40
48517;BME280;34310;51.904;4.256;2023-09-18T00:37:35;100551.75;;;23.34;58.19
48517;BME280;34310;51.904;4.256;2023-09-18T00:40:02;100549.09;;;23.34;58.51
48517;BME280;34310;51.904;4.256;2023-09-18T00:42:28;100533.31;;;23.34;58.19
48517;BME280;34310;51.904;4.256;2023-09-18T00:44:55;100512.22;;;23.34;58.14
48517;BME280;34310;51.904;4.256;2023-09-18T00:47:22;100492.91;;;23.33;58.39
48517;BME280;34310;51.904;4.256;2023-09-18T00:49:49;100472.63;;;23.26;58.36
48517;BME280;34310;51.904;4.256;2023-09-18T00:52:19;100473.53;;;23.28;58.06
48517;BME280;34310;51.904;4.256;2023-09-18T00:54:47;100474.47;;;23.33;58.48
48517;BME280;34310;51.904;4.256;2023-09-18T00:57:14;100475.25;;;23.26;58.20
48517;BME280;34310;51.904;4.256;2023-09-18T00:59:41;100466.38;;;23.18;58.20
48517;BME280;34310;51.904;4.256;2023-09-18T01:02:07;100486.75;;;23.33;58.27
48517;BME280;34310;51.904;4.256;2023-09-18T01:04:34;100470.88;;;23.28;58.23
48517;BME280;34310;51.904;4.256;2023-09-18T01:07:01;100482.34;;;23.32;58.39
48517;BME280;34310;51.904;4.256;2023-09-18T01:09:28;100488.47;;;23.31;58.50
48517;BME280;34310;51.904;4.256;2023-09-18T01:15:04;100490.25;;;23.32;58.40
48517;BME280;34310;51.904;4.256;2023-09-18T01:17:23;100475.28;;;23.29;58.15
48517;BME280;34310;51.904;4.256;2023-09-18T01:19:50;100471.72;;;23.24;58.27
48517;BME280;34310;51.904;4.256;2023-09-18T01:22:18;100487.56;;;23.29;58.40
48517;BME280;34310;51.904;4.256;2023-09-18T01:24:46;100486.69;;;23.28;58.51
48517;BME280;34310;51.904;4.256;2023-09-18T01:27:15;100493.72;;;23.29;58.33
48517;BME280;34310;51.904;4.256;2023-09-18T01:29:43;100500.78;;;23.32;58.34
48517;BME280;34310;51.904;4.256;2023-09-18T01:32:10;100488.41;;;23.25;58.33
48517;BME280;34310;51.904;4.256;2023-09-18T01:34:39;100500.78;;;23.32;58.44
48517;BME280;34310;51.904;4.256;2023-09-18T01:37:07;100507.81;;;23.31;58.42
48517;BME280;34310;51.904;4.256;2023-09-18T01:39:36;100506.03;;;23.30;58.34
48517;BME280;34310;51.904;4.256;2023-09-18T01:42:04;100505.16;;;23.31;58.48
48517;BME280;34310;51.904;4.256;2023-09-18T01:44:32;100507.78;;;23.30;58.36
48517;BME280;34310;51.904;4.256;2023-09-18T01:47:01;100512.19;;;23.31;58.45
48517;BME280;34310;51.904;4.256;2023-09-18T01:49:30;100515.69;;;23.30;58.46
48517;BME280;34310;51.904;4.256;2023-09-18T01:51:57;100508.66;;;23.30;58.34
48517;BME280;34310;51.904;4.256;2023-09-18T01:54:24;100509.56;;;23.31;58.49
48517;BME280;34310;51.904;4.256;2023-09-18T01:56:52;100504.25;;;23.29;58.47
48517;BME280;34310;51.904;4.256;2023-09-18T01:59:19;100495.41;;;23.23;58.37
48517;BME280;34310;51.904;4.256;2023-09-18T02:01:46;100507.75;;;23.27;58.66
48517;BME280;34310;51.904;4.256;2023-09-18T02:04:13;100508.66;;;23.30;58.41
48517;BME280;34310;51.904;4.256;2023-09-18T02:07:00;100506.03;;;23.30;58.66
48517;BME280;34310;51.904;4.256;2023-09-18T02:09:26;100490.16;;;23.24;58.37
48517;BME280;34310;51.904;4.256;2023-09-18T02:11:53;100495.50;;;23.30;58.29
48517;BME280;34310;51.904;4.256;2023-09-18T02:14:19;100482.28;;;23.27;58.53
48517;BME280;34310;51.904;4.256;2023-09-18T02:16:46;100489.34;;;23.30;58.56
48517;BME280;34310;51.904;4.256;2023-09-18T02:19:13;100470.03;;;23.29;58.51
48517;BME280;34310;51.904;4.256;2023-09-18T02:21:40;100465.63;;;23.30;58.54
48517;BME280;34310;51.904;4.256;2023-09-18T02:24:07;100474.41;;;23.30;58.41
48517;BME280;34310;51.904;4.256;2023-09-18T02:26:33;100466.47;;;23.27;58.33
48517;BME280;34310;51.904;4.256;2023-09-18T02:29:08;100462.97;;;23.28;58.41
48517;BME280;34310;51.904;4.256;2023-09-18T02:31:35;100462.13;;;23.29;58.53
48517;BME280;34310;51.904;4.256;2023-09-18T02:34:01;100445.44;;;23.29;58.59
48517;BME280;34310;51.904;4.256;2023-09-18T02:36:28;100443.69;;;23.29;58.48
48517;BME280;34310;51.904;4.256;2023-09-18T02:38:54;100434.91;;;23.29;58.44
48517;BME280;34310;51.904;4.256;2023-09-18T02:41:21;100423.47;;;23.28;58.51
48517;BME280;34310;51.904;4.256;2023-09-18T02:43:48;100418.19;;;23.27;58.39
48517;BME280;34310;51.904;4.256;2023-09-18T02:46:14;100419.09;;;23.29;58.29
48517;BME280;34310;51.904;4.256;2023-09-18T02:48:41;100393.63;;;23.29;58.51
48517;BME280;34310;51.904;4.256;2023-09-18T02:51:07;100370.78;;;23.28;58.54
48517;BME280;34310;51.904;4.256;2023-09-18T02:53:34;100366.38;;;23.27;58.38
48517;BME280;34310;51.904;4.256;2023-09-18T02:56:01;100383.94;;;23.27;58.59
48517;BME280;34310;51.904;4.256;2023-09-18T02:58:28;100370.72;;;23.21;58.71
48517;BME280;34310;51.904;4.256;2023-09-18T03:00:56;100364.59;;;23.25;58.51
48517;BME280;34310;51.904;4.256;2023-09-18T03:03:22;100352.28;;;23.21;58.75
48517;BME280;34310;51.904;4.256;2023-09-18T03:05:49;100362.00;;;23.28;58.50
48517;BME280;34310;51.904;4.256;2023-09-18T03:08:16;100341.59;;;23.11;58.40
48517;BME280;34310;51.904;4.256;2023-09-18T03:10:43;100367.22;;;23.22;58.45
48517;BME280;34310;51.904;4.256;2023-09-18T03:13:11;100368.13;;;23.27;58.34
48517;BME280;34310;51.904;4.256;2023-09-18T03:15:38;100379.56;;;23.27;58.34
48517;BME280;34310;51.904;4.256;2023-09-18T03:18:05;100360.19;;;23.21;58.47
48517;BME280;34310;51.904;4.256;2023-09-18T03:20:32;100359.31;;;23.22;58.75
48517;BME280;34310;51.904;4.256;2023-09-18T03:23:00;100365.50;;;23.27;58.50
48517;BME280;34310;51.904;4.256;2023-09-18T03:25:28;100375.16;;;23.25;58.45
48517;BME280;34310;51.904;4.256;2023-09-18T03:27:55;100384.78;;;23.24;58.58
48517;BME280;34310;51.904;4.256;2023-09-18T03:30:23;100406.75;;;23.26;58.49
48517;BME280;34310;51.904;4.256;2023-09-18T03:32:50;100406.75;;;23.26;58.60
48517;BME280;34310;51.904;4.256;2023-09-18T03:35:18;100388.28;;;23.23;58.71
48517;BME280;34310;51.904;4.256;2023-09-18T03:37:49;100382.19;;;23.26;58.70
48517;BME280;34310;51.904;4.256;2023-09-18T03:40:17;100377.78;;;23.26;58.35
48517;BME280;34310;51.904;4.256;2023-09-18T03:42:44;100387.44;;;23.26;58.83
48517;BME280;34310;51.904;4.256;2023-09-18T03:45:11;100383.94;;;23.25;58.55
48517;BME280;34310;51.904;4.256;2023-09-18T03:47:39;100380.38;;;23.22;58.49
48517;BME280;34310;51.904;4.256;2023-09-18T03:50:07;100407.56;;;23.19;58.74
48517;BME280;34310;51.904;4.256;2023-09-18T03:52:34;100420.78;;;23.24;58.57
48517;BME280;34310;51.904;4.256;2023-09-18T03:55:01;100424.31;;;23.26;58.47
48517;BME280;34310;51.904;4.256;2023-09-18T03:57:28;100411.13;;;23.24;58.66
48517;BME280;34310;51.904;4.256;2023-09-18T03:59:55;100383.84;;;23.17;58.41
48517;BME280;34310;51.904;4.256;2023-09-18T04:02:23;100383.91;;;23.22;58.37
48517;BME280;34310;51.904;4.256;2023-09-18T04:04:50;100357.50;;;23.16;58.43
48517;BME280;34310;51.904;4.256;2023-09-18T04:07:17;100363.72;;;23.24;58.66
48517;BME280;34310;51.904;4.256;2023-09-18T04:09:44;100348.78;;;23.23;58.45
48517;BME280;34310;51.904;4.256;2023-09-18T04:12:10;100345.28;;;23.24;58.59
48517;BME280;34310;51.904;4.256;2023-09-18T04:14:37;100337.38;;;23.24;58.75
48517;BME280;34310;51.904;4.256;2023-09-18T04:17:03;100328.53;;;23.17;58.46
48517;BME280;34310;51.904;4.256;2023-09-18T04:19:30;100333.00;;;23.25;58.63
48517;BME280;34310;51.904;4.256;2023-09-18T04:21:56;100332.13;;;23.24;58.58
48517;BME280;34310;51.904;4.256;2023-09-18T04:24:23;100325.06;;;23.22;58.70
48517;BME280;34310;51.904;4.256;2023-09-18T04:26:50;100346.16;;;23.23;58.38
48517;BME280;34310;51.904;4.256;2023-09-18T04:29:17;100353.16;;;23.23;58.54
48517;BME280;34310;51.904;4.256;2023-09-18T04:31:44;100368.09;;;23.24;58.73
48517;BME280;34310;51.904;4.256;2023-09-18T04:34:11;100376.00;;;23.22;58.55
48517;BME280;34310;51.904;4.256;2023-09-18T04:36:38;100355.66;;;23.12;58.38
48517;BME280;34310;51.904;4.256;2023-09-18T04:39:05;100362.81;;;23.22;58.62
48517;BME280;34310;51.904;4.256;2023-09-18T04:41:32;100361.06;;;23.23;58.53
48517;BME280;34310;51.904;4.256;2023-09-18T04:43:59;100357.56;;;23.24;58.52
48517;BME280;34310;51.904;4.256;2023-09-18T04:46:25;100345.28;;;23.23;58.53
48517;BME280;34310;51.904;4.256;2023-09-18T04:48:52;100349.66;;;23.22;58.63
48517;BME280;34310;51.904;4.256;2023-09-18T04:51:19;100342.63;;;23.21;58.83
48517;BME280;34310;51.904;4.256;2023-09-18T04:53:46;100340.00;;;23.21;58.61
48517;BME280;34310;51.904;4.256;2023-09-18T04:56:12;100314.44;;;23.14;58.71
48517;BME280;34310;51.904;4.256;2023-09-18T04:58:39;100320.63;;;23.17;58.67
48517;BME280;34310;51.904;4.256;2023-09-18T05:01:05;100324.16;;;23.20;58.86
48517;BME280;34310;51.904;4.256;2023-09-18T05:03:35;100322.38;;;23.15;58.52
48517;BME280;34310;51.904;4.256;2023-09-18T05:06:04;100328.56;;;23.21;58.67
48517;BME280;34310;51.904;4.256;2023-09-18T05:08:31;100302.16;;;23.14;58.54
48517;BME280;34310;51.904;4.256;2023-09-18T05:10:57;100308.38;;;23.21;58.46
48517;BME280;34310;51.904;4.256;2023-09-18T05:13:24;100303.97;;;23.20;58.62
48517;BME280;34310;51.904;4.256;2023-09-18T05:15:50;100296.09;;;23.20;58.49
48517;BME280;34310;51.904;4.256;2023-09-18T05:18:17;100278.41;;;23.13;58.64
48517;BME280;34310;51.904;4.256;2023-09-18T05:20:43;100282.91;;;23.18;58.64
48517;BME280;34310;51.904;4.256;2023-09-18T05:23:10;100277.63;;;23.17;58.56
48517;BME280;34310;51.904;4.256;2023-09-18T05:25:37;100283.75;;;23.17;58.73
48517;BME280;34310;51.904;4.256;2023-09-18T05:28:04;100284.66;;;23.18;58.79
48517;BME280;34310;51.904;4.256;2023-09-18T05:30:32;100278.50;;;23.19;58.57
48517;BME280;34310;51.904;4.256;2023-09-18T05:33:00;100272.34;;;23.15;58.86
48517;BME280;34310;51.904;4.256;2023-09-18T05:35:26;100283.78;;;23.19;58.65
48517;BME280;34310;51.904;4.256;2023-09-18T05:37:53;100287.28;;;23.20;58.73
48517;BME280;34310;51.904;4.256;2023-09-18T05:40:19;100281.91;;;23.12;58.51
48517;BME280;34310;51.904;4.256;2023-09-18T05:42:46;100273.16;;;23.13;58.60
48517;BME280;34310;51.904;4.256;2023-09-18T05:45:13;100300.47;;;23.20;58.91
48517;BME280;34310;51.904;4.256;2023-09-18T05:47:41;100295.19;;;23.20;58.84
48517;BME280;34310;51.904;4.256;2023-09-18T05:50:09;100278.50;;;23.19;59.05
48517;BME280;34310;51.904;4.256;2023-09-18T05:52:36;100286.41;;;23.19;58.55
48517;BME280;34310;51.904;4.256;2023-09-18T05:55:03;100285.53;;;23.18;58.58
48517;BME280;34310;51.904;4.256;2023-09-18T05:57:31;100289.06;;;23.19;58.74
48517;BME280;34310;51.904;4.256;2023-09-18T05:59:58;100278.47;;;23.16;58.81
48517;BME280;34310;51.904;4.256;2023-09-18T06:02:24;100289.00;;;23.14;58.92
48517;BME280;34310;51.904;4.256;2023-09-18T06:04:58;100297.81;;;23.18;58.87
48517;BME280;34310;51.904;4.256;2023-09-18T06:07:28;100264.28;;;23.03;58.64
48517;BME280;34310;51.904;4.256;2023-09-18T06:09:56;100296.06;;;23.17;58.63
48517;BME280;34310;51.904;4.256;2023-09-18T06:12:23;100278.38;;;23.10;58.70
48517;BME280;34310;51.904;4.256;2023-09-18T06:14:49;100277.59;;;23.14;58.81
48517;BME280;34310;51.904;4.256;2023-09-18T06:17:17;100301.34;;;23.18;58.50
48517;BME280;34310;51.904;4.256;2023-09-18T06:19:44;100288.94;;;23.11;58.53
48517;BME280;34310;51.904;4.256;2023-09-18T06:22:12;100296.06;;;23.18;58.70
48517;BME280;34310;51.904;4.256;2023-09-18T06:24:38;100274.88;;;23.11;58.57
48517;BME280;34310;51.904;4.256;2023-09-18T06:27:05;100296.06;;;23.17;58.73
48517;BME280;34310;51.904;4.256;2023-09-18T06:29:32;100293.44;;;23.18;58.86
48517;BME280;34310;51.904;4.256;2023-09-18T06:31:59;100267.00;;;23.11;58.62
48517;BME280;34310;51.904;4.256;2023-09-18T06:34:26;100275.00;;;23.18;58.71
48517;BME280;34310;51.904;4.256;2023-09-18T06:36:53;100268.84;;;23.18;58.67
48517;BME280;34310;51.904;4.256;2023-09-18T06:39:19;100265.31;;;23.16;58.72
48517;BME280;34310;51.904;4.256;2023-09-18T06:41:46;100247.66;;;23.07;58.83
48517;BME280;34310;51.904;4.256;2023-09-18T06:44:13;100263.47;;;23.09;58.73
48517;BME280;34310;51.904;4.256;2023-09-18T06:46:39;100286.41;;;23.17;59.01
48517;BME280;34310;51.904;4.256;2023-09-18T06:49:07;100295.16;;;23.15;58.52
48517;BME280;34310;51.904;4.256;2023-09-18T06:51:34;100277.50;;;23.08;58.96
48517;BME280;34310;51.904;4.256;2023-09-18T06:54:08;100286.31;;;23.13;58.63
48517;BME280;34310;51.904;4.256;2023-09-18T06:56:35;100288.94;;;23.11;58.54
48517;BME280;34310;51.904;4.256;2023-09-18T06:59:01;100300.41;;;23.15;58.63
48517;BME280;34310;51.904;4.256;2023-09-18T07:01:28;100305.69;;;23.15;58.84
48517;BME280;34310;51.904;4.256;2023-09-18T07:03:54;100309.22;;;23.17;58.85
48517;BME280;34310;51.904;4.256;2023-09-18T07:06:21;100294.13;;;23.05;58.84
48517;BME280;34310;51.904;4.256;2023-09-18T07:08:48;100318.00;;;23.16;58.86
48517;BME280;34310;51.904;4.256;2023-09-18T07:11:15;100315.34;;;23.16;58.80
48517;BME280;34310;51.904;4.256;2023-09-18T07:13:42;100298.53;;;23.05;58.75
48517;BME280;34310;51.904;4.256;2023-09-18T07:16:09;100299.47;;;23.11;58.68
48517;BME280;34310;51.904;4.256;2023-09-18T07:18:36;100319.75;;;23.17;58.68
48517;BME280;34310;51.904;4.256;2023-09-18T07:21:02;100313.59;;;23.15;58.63
48517;BME280;34310;51.904;4.256;2023-09-18T07:23:29;100323.25;;;23.16;59.00
48517;BME280;34310;51.904;4.256;2023-09-18T07:25:55;100323.28;;;23.17;58.67
48517;BME280;34310;51.904;4.256;2023-09-18T07:28:22;100321.50;;;23.16;58.75
48517;BME280;34310;51.904;4.256;2023-09-18T07:30:48;100331.16;;;23.16;58.78
48517;BME280;34310;51.904;4.256;2023-09-18T07:33:15;100319.66;;;23.11;58.89
48517;BME280;34310;51.904;4.256;2023-09-18T07:35:42;100328.41;;;23.10;58.80
48517;BME280;34310;51.904;4.256;2023-09-18T07:38:11;100347.81;;;23.15;58.70
48517;BME280;34310;51.904;4.256;2023-09-18T07:40:37;100320.47;;;23.04;58.75
48517;BME280;34310;51.904;4.256;2023-09-18T07:43:04;100333.66;;;23.07;58.86
48517;BME280;34310;51.904;4.256;2023-09-18T07:45:30;100344.34;;;23.17;58.98
48517;BME280;34310;51.904;4.256;2023-09-18T07:47:57;100346.09;;;23.17;59.08
48517;BME280;34310;51.904;4.256;2023-09-18T07:50:23;100331.06;;;23.10;58.98
48517;BME280;34310;51.904;4.256;2023-09-18T07:52:50;100352.25;;;23.17;58.81
48517;BME280;34310;51.904;4.256;2023-09-18T07:55:17;100347.84;;;23.18;58.98
48517;BME280;34310;51.904;4.256;2023-09-18T07:57:43;100350.50;;;23.18;58.82
48517;BME280;34310;51.904;4.256;2023-09-18T08:00:10;100356.63;;;23.18;58.96
48517;BME280;34310;51.904;4.256;2023-09-18T08:02:38;100343.34;;;23.11;59.02
48517;BME280;34310;51.904;4.256;2023-09-18T08:05:05;100352.13;;;23.11;59.13
48517;BME280;34310;51.904;4.256;2023-09-18T08:07:32;100367.19;;;23.18;58.76
48517;BME280;34310;51.904;4.256;2023-09-18T08:09:58;100368.94;;;23.18;58.96
48517;BME280;34310;51.904;4.256;2023-09-18T08:12:25;100371.53;;;23.16;58.98
48517;BME280;34310;51.904;4.256;2023-09-18T08:14:52;100368.88;;;23.13;59.04
48517;BME280;34310;51.904;4.256;2023-09-18T08:17:18;100363.53;;;23.09;58.89
48517;BME280;34310;51.904;4.256;2023-09-18T08:19:45;100383.88;;;23.21;59.19
48517;BME280;34310;51.904;4.256;2023-09-18T08:22:11;100390.00;;;23.20;59.17
48517;BME280;34310;51.904;4.256;2023-09-18T08:24:38;100390.03;;;23.21;58.98
48517;BME280;34310;51.904;4.256;2023-09-18T08:27:04;100390.03;;;23.21;59.20
48517;BME280;34310;51.904;4.256;2023-09-18T08:29:31;100397.94;;;23.21;58.89
48517;BME280;34310;51.904;4.256;2023-09-18T08:31:57;100399.69;;;23.22;59.14
48517;BME280;34310;51.904;4.256;2023-09-18T08:34:24;100402.34;;;23.22;59.02
48517;BME280;34310;51.904;4.256;2023-09-18T08:36:54;100412.88;;;23.22;59.13
48517;BME280;34310;51.904;4.256;2023-09-18T08:39:20;100407.59;;;23.22;59.13
48517;BME280;34310;51.904;4.256;2023-09-18T08:41:50;100402.34;;;23.22;59.03
48517;BME280;34310;51.904;4.256;2023-09-18T08:44:17;100395.31;;;23.23;59.16
48517;BME280;34310;51.904;4.256;2023-09-18T08:46:45;100397.94;;;23.21;59.04
48517;BME280;34310;51.904;4.256;2023-09-18T08:49:12;100392.69;;;23.23;59.00
48517;BME280;34310;51.904;4.256;2023-09-18T08:51:40;100401.47;;;23.23;59.14
48517;BME280;34310;51.904;4.256;2023-09-18T08:54:09;100398.84;;;23.23;58.98
48517;BME280;34310;51.904;4.256;2023-09-18T08:56:35;100404.97;;;23.24;59.44
48517;BME280;34310;51.904;4.256;2023-09-18T08:59:02;100401.44;;;23.22;59.39
48517;BME280;34310;51.904;4.256;2023-09-18T09:01:28;100415.53;;;23.25;59.32
48517;BME280;34310;51.904;4.256;2023-09-18T09:03:55;100409.38;;;23.23;59.19
48517;BME280;34310;51.904;4.256;2023-09-18T09:06:22;100404.94;;;23.21;59.15
48517;BME280;34310;51.904;4.256;2023-09-18T09:08:49;100410.28;;;23.25;59.39
48517;BME280;34310;51.904;4.256;2023-09-18T09:11:17;100409.38;;;23.25;59.27
48517;BME280;34310;51.904;4.256;2023-09-18T09:13:44;100420.81;;;23.27;59.49
48517;BME280;34310;51.904;4.256;2023-09-18T09:16:13;100384.63;;;23.12;59.37
48517;BME280;34310;51.904;4.256;2023-09-18T09:18:50;100408.53;;;23.27;59.24
48517;BME280;34310;51.904;4.256;2023-09-18T09:21:18;100415.53;;;23.25;59.38
48517;BME280;34310;51.904;4.256;2023-09-18T09:23:51;100397.13;;;23.28;59.48
48517;BME280;34310;51.904;4.256;2023-09-18T09:26:21;100373.22;;;23.13;59.54
48517;BME280;34310;51.904;4.256;2023-09-18T09:28:48;100392.72;;;23.26;59.52
48517;BME280;34310;51.904;4.256;2023-09-18T09:33:52;100398.03;;;23.29;59.76
48517;BME280;34310;51.904;4.256;2023-09-18T09:36:20;100403.31;;;23.30;59.54
48517;BME280;34310;51.904;4.256;2023-09-18T09:38:46;100409.44;;;23.29;59.63
48517;BME280;34310;51.904;4.256;2023-09-18T09:41:14;100400.59;;;23.23;59.54
48517;BME280;34310;51.904;4.256;2023-09-18T09:43:42;100420.88;;;23.31;59.41
48517;BME280;34310;51.904;4.256;2023-09-18T09:46:15;100419.13;;;23.32;59.56
48517;BME280;34310;51.904;4.256;2023-09-18T09:48:57;100422.66;;;23.32;59.60
48517;BME280;34310;51.904;4.256;2023-09-18T09:51:24;100417.34;;;23.29;59.37
48517;BME280;34310;51.904;4.256;2023-09-18T09:53:50;100419.97;;;23.28;59.49
48517;BME280;34310;51.904;4.256;2023-09-18T09:56:17;100412.06;;;23.29;59.70
48517;BME280;34310;51.904;4.256;2023-09-18T09:59:02;100419.06;;;23.27;59.50
48517;BME280;34310;51.904;4.256;2023-09-18T10:01:30;100421.75;;;23.30;59.60
48517;BME280;34310;51.904;4.256;2023-09-18T10:03:58;100405.00;;;23.25;59.69
48517;BME280;34310;51.904;4.256;2023-09-18T10:06:26;100410.34;;;23.31;59.49
48517;BME280;34310;51.904;4.256;2023-09-18T10:08:54;100412.06;;;23.29;59.78
48517;BME280;34310;51.904;4.256;2023-09-18T10:11:21;100406.84;;;23.34;59.77
48517;BME280;34310;51.904;4.256;2023-09-18T10:13:57;100420.94;;;23.36;59.61
48517;BME280;34310;51.904;4.256;2023-09-18T10:16:26;100407.75;;;23.34;59.73
48517;BME280;34310;51.904;4.256;2023-09-18T10:21:56;100411.31;;;23.39;59.45
48517;BME280;34310;51.904;4.256;2023-09-18T10:24:28;100418.31;;;23.39;59.70
48517;BME280;34310;51.904;4.256;2023-09-18T10:26:59;100402.47;;;23.34;59.46
48517;BME280;34310;51.904;4.256;2023-09-18T10:29:27;100420.97;;;23.40;59.70
48517;BME280;34310;51.904;4.256;2023-09-18T10:31:54;100398.94;;;23.34;59.81
48517;BME280;34310;51.904;4.256;2023-09-18T10:34:22;100407.84;;;23.42;59.66
48517;BME280;34310;51.904;4.256;2023-09-18T10:36:53;100407.81;;;23.40;59.57
48517;BME280;34310;51.904;4.256;2023-09-18T10:39:20;100417.53;;;23.44;59.78
48517;BME280;34310;51.904;4.256;2023-09-18T10:41:56;100420.09;;;23.41;59.63
48517;BME280;34310;51.904;4.256;2023-09-18T10:44:23;100412.28;;;23.44;59.32
48517;BME280;34310;51.904;4.256;2023-09-18T10:46:51;100419.31;;;23.45;59.53
48517;BME280;34310;51.904;4.256;2023-09-18T10:49:18;100405.16;;;23.40;59.70
48517;BME280;34310;51.904;4.256;2023-09-18T10:51:46;100412.28;;;23.46;59.72
48517;BME280;34310;51.904;4.256;2023-09-18T10:54:15;100410.53;;;23.45;59.71
48517;BME280;34310;51.904;4.256;2023-09-18T10:56:43;100415.84;;;23.49;59.74
48517;BME280;34310;51.904;4.256;2023-09-18T10:59:10;100395.50;;;23.41;59.75
48517;BME280;34310;51.904;4.256;2023-09-18T11:01:37;100417.56;;;23.47;59.82
48517;BME280;34310;51.904;4.256;2023-09-18T11:04:05;100414.09;;;23.50;59.73
48517;BME280;34310;51.904;4.256;2023-09-18T11:09:22;100419.38;;;23.53;59.65
48517;BME280;34310;51.904;4.256;2023-09-18T11:14:47;100415.88;;;23.54;59.40
48517;BME280;34310;51.904;4.256;2023-09-18T11:17:30;100415.94;;;23.57;59.45
48517;BME280;34310;51.904;4.256;2023-09-18T11:22:51;100401.91;;;23.58;59.69
48517;BME280;34310;51.904;4.256;2023-09-18T11:28:01;100404.56;;;23.60;59.60
48517;BME280;34310;51.904;4.256;2023-09-18T11:30:29;100399.28;;;23.58;59.55
48517;BME280;34310;51.904;4.256;2023-09-18T11:32:56;100412.47;;;23.61;59.60
48517;BME280;34310;51.904;4.256;2023-09-18T11:35:22;100396.66;;;23.61;59.53
48517;BME280;34310;51.904;4.256;2023-09-18T11:38:09;100399.31;;;23.63;59.34
48517;BME280;34310;51.904;4.256;2023-09-18T11:40:38;100394.00;;;23.57;59.62
48517;BME280;34310;51.904;4.256;2023-09-18T11:45:55;100387.06;;;23.66;59.53
48517;BME280;34310;51.904;4.256;2023-09-18T11:48:22;100390.59;;;23.68;59.41
48517;BME280;34310;51.904;4.256;2023-09-18T11:50:49;100390.56;;;23.67;59.64
48517;BME280;34310;51.904;4.256;2023-09-18T11:53:18;100371.22;;;23.65;59.71
48517;BME280;34310;51.904;4.256;2023-09-18T11:55:45;100377.41;;;23.67;59.69
48517;BME280;34310;51.904;4.256;2023-09-18T11:58:11;100394.09;;;23.69;59.44
48517;BME280;34310;51.904;4.256;2023-09-18T12:00:38;100369.50;;;23.70;59.59
48517;BME280;34310;51.904;4.256;2023-09-18T12:03:22;100358.06;;;23.65;59.54
48517;BME280;34310;51.904;4.256;2023-09-18T12:05:54;100362.47;;;23.69;59.68
48517;BME280;34310;51.904;4.256;2023-09-18T12:08:22;100372.22;;;23.73;59.36
48517;BME280;34310;51.904;4.256;2023-09-18T12:10:50;100366.06;;;23.74;59.49
48517;BME280;34310;51.904;4.256;2023-09-18T12:13:17;100364.28;;;23.71;59.52
48517;BME280;34310;51.904;4.256;2023-09-18T12:15:43;100354.56;;;23.69;59.36
48517;BME280;34310;51.904;4.256;2023-09-18T12:18:11;100360.78;;;23.71;59.47
48517;BME280;34310;51.904;4.256;2023-09-18T12:20:44;100339.63;;;23.68;59.47
48517;BME280;34310;51.904;4.256;2023-09-18T12:23:11;100361.72;;;23.79;59.54
48517;BME280;34310;51.904;4.256;2023-09-18T12:25:39;100343.28;;;23.81;59.57
48517;BME280;34310;51.904;4.256;2023-09-18T12:28:06;100347.66;;;23.78;59.50
48517;BME280;34310;51.904;4.256;2023-09-18T12:30:34;100346.81;;;23.81;59.22
48517;BME280;34310;51.904;4.256;2023-09-18T12:33:00;100343.28;;;23.79;59.43
48517;BME280;34310;51.904;4.256;2023-09-18T12:35:28;100339.75;;;23.80;59.28
48517;BME280;34310;51.904;4.256;2023-09-18T12:37:55;100337.13;;;23.82;59.36
48517;BME280;34310;51.904;4.256;2023-09-18T12:40:22;100337.19;;;23.88;59.40
48517;BME280;34310;51.904;4.256;2023-09-18T12:42:49;100342.47;;;23.89;59.52
48517;BME280;34310;51.904;4.256;2023-09-18T12:45:16;100324.00;;;23.86;59.52
48517;BME280;34310;51.904;4.256;2023-09-18T12:47:43;100317.00;;;23.90;59.35
48517;BME280;34310;51.904;4.256;2023-09-18T12:50:13;100314.38;;;23.91;59.35
48517;BME280;34310;51.904;4.256;2023-09-18T12:52:40;100310.84;;;23.92;59.35
48517;BME280;34310;51.904;4.256;2023-09-18T12:55:08;100312.63;;;23.95;59.27
48517;BME280;34310;51.904;4.256;2023-09-18T12:57:35;100308.25;;;23.95;59.44
48517;BME280;34310;51.904;4.256;2023-09-18T13:00:09;100300.34;;;23.97;59.39
48517;BME280;34310;51.904;4.256;2023-09-18T13:02:37;100296.84;;;23.98;59.36
48517;BME280;34310;51.904;4.256;2023-09-18T13:05:05;100281.84;;;23.92;59.45
48517;BME280;34310;51.904;4.256;2023-09-18T13:07:43;100296.88;;;24.01;59.11
48517;BME280;34310;51.904;4.256;2023-09-18T13:10:10;100289.81;;;23.98;59.43
48517;BME280;34310;51.904;4.256;2023-09-18T13:12:50;100277.56;;;24.02;59.27
48517;BME280;34310;51.904;4.256;2023-09-18T13:15:25;100273.16;;;24.02;59.27